createdAt,value
2022-10-17T00:00:56.934Z,26.17
2022-10-17T00:03:23.582Z,24.65
2022-10-17T00:05:50.237Z,28.88
2022-10-17T00:08:20.992Z,27.52
2022-10-17T00:10:57.231Z,26.23
2022-10-17T00:13:24.377Z,29.90
2022-10-17T00:15:51.124Z,28.27
2022-10-17T00:18:17.908Z,29.50
2022-10-17T00:20:44.733Z,25.02
2022-10-17T00:23:11.783Z,27.20
2022-10-17T00:25:38.424Z,26.55
2022-10-17T00:28:05.216Z,26.52
2022-10-17T00:30:32.844Z,27.80
2022-10-17T00:32:59.431Z,22.90
2022-10-17T00:35:26.160Z,25.10
2022-10-17T00:37:52.783Z,27.75
2022-10-17T00:40:20.001Z,29.15
2022-10-17T00:42:46.633Z,23.48
2022-10-17T00:45:28.636Z,27.92
2022-10-17T00:48:00.268Z,28.48
2022-10-17T00:50:27.998Z,31.42
2022-10-17T00:52:56.828Z,25.45
2022-10-17T01:00:20.513Z,22.95
2022-10-17T01:02:47.441Z,26.90
2022-10-17T01:05:15.274Z,28.58
2022-10-17T01:07:43.212Z,25.75
2022-10-17T01:10:11.269Z,29.27
2022-10-17T01:12:51.963Z,30.35
2022-10-17T01:15:33.351Z,28.45
2022-10-17T01:18:34.123Z,27.45
2022-10-17T01:21:11.271Z,30.00
2022-10-17T01:23:48.461Z,26.88
2022-10-17T01:26:24.329Z,26.50
2022-10-17T01:29:25.145Z,26.55
2022-10-17T01:32:16.421Z,27.13
2022-10-17T01:34:57.283Z,30.58
2022-10-17T01:37:28.338Z,29.58
2022-10-17T01:40:11.293Z,33.08
2022-10-17T01:42:42.320Z,29.85
2022-10-17T01:45:47.774Z,27.63
2022-10-17T01:48:36.447Z,21.58
2022-10-17T01:54:02.565Z,24.65
2022-10-17T01:56:32.061Z,29.30
2022-10-17T01:59:08.715Z,23.27
2022-10-17T02:01:38.232Z,26.98
2022-10-17T02:04:08.004Z,26.63
2022-10-17T02:06:36.263Z,28.83
2022-10-17T02:09:24.652Z,27.88
2022-10-17T02:12:13.586Z,23.95
2022-10-17T02:14:49.208Z,28.10
2022-10-17T02:17:31.094Z,21.58
2022-10-17T02:20:22.441Z,23.60
2022-10-17T02:23:22.156Z,25.63
2022-10-17T02:26:17.313Z,26.25
2022-10-17T02:29:08.059Z,23.90
2022-10-17T02:31:37.617Z,27.02
2022-10-17T02:34:16.920Z,28.42
2022-10-17T02:36:52.912Z,23.45
2022-10-17T02:39:23.163Z,19.05
2022-10-17T02:41:52.702Z,26.02
2022-10-17T02:44:20.638Z,20.15
2022-10-17T02:46:56.768Z,27.70
2022-10-17T02:49:28.965Z,29.90
2022-10-17T02:52:13.433Z,28.60
2022-10-17T02:54:53.391Z,25.55
2022-10-17T02:57:31.388Z,26.60
2022-10-17T03:00:01.319Z,23.88
2022-10-17T03:02:28.658Z,28.88
2022-10-17T03:04:56.522Z,25.63
2022-10-17T03:07:23.122Z,28.83
2022-10-17T03:09:49.784Z,25.88
2022-10-17T03:12:16.662Z,26.83
2022-10-17T03:14:43.313Z,28.25
2022-10-17T03:17:09.949Z,20.98
2022-10-17T03:19:36.585Z,28.02
2022-10-17T03:22:06.641Z,25.73
2022-10-17T03:24:33.398Z,28.08
2022-10-17T03:27:00.173Z,30.10
2022-10-17T03:29:26.800Z,31.70
2022-10-17T03:31:53.396Z,26.25
2022-10-17T03:34:20.260Z,29.20
2022-10-17T03:36:47.035Z,25.52
2022-10-17T03:39:15.932Z,28.05
2022-10-17T03:41:42.550Z,25.15
2022-10-17T03:44:09.311Z,24.13
2022-10-17T03:46:35.990Z,25.08
2022-10-17T03:49:02.614Z,21.33
2022-10-17T03:51:29.310Z,27.52
2022-10-17T03:53:55.881Z,25.23
2022-10-17T03:56:24.360Z,30.45
2022-10-17T03:58:51.797Z,26.77
2022-10-17T04:01:19.724Z,27.55
2022-10-17T04:03:54.233Z,27.77
2022-10-17T04:06:21.513Z,21.23
2022-10-17T04:08:48.461Z,27.05
2022-10-17T04:11:18.865Z,23.40
2022-10-17T04:13:46.338Z,24.30
2022-10-17T04:16:15.886Z,27.15
2022-10-17T04:18:43.421Z,26.67
2022-10-17T04:21:11.079Z,25.30
2022-10-17T04:23:38.137Z,26.58
2022-10-17T04:26:06.675Z,24.95
2022-10-17T04:28:34.062Z,30.23
2022-10-17T04:31:03.910Z,30.50
2022-10-17T04:33:32.152Z,25.30
2022-10-17T04:36:04.587Z,23.63
2022-10-17T04:38:31.980Z,24.40
2022-10-17T04:41:03.350Z,29.17
2022-10-17T04:43:35.230Z,29.23
2022-10-17T04:46:04.130Z,30.15
2022-10-17T04:48:31.178Z,20.40
2022-10-17T04:51:00.469Z,26.25
2022-10-17T04:53:27.311Z,28.50
2022-10-17T04:55:54.677Z,21.75
2022-10-17T04:58:22.598Z,24.05
2022-10-17T05:00:49.465Z,28.47
2022-10-17T05:03:16.874Z,27.70
2022-10-17T05:05:43.867Z,30.88
2022-10-17T05:08:11.863Z,27.58
2022-10-17T05:10:40.303Z,27.37
2022-10-17T05:13:08.608Z,22.35
2022-10-17T05:15:36.423Z,24.70
2022-10-17T05:18:04.378Z,29.23
2022-10-17T05:20:30.982Z,30.00
2022-10-17T05:23:00.871Z,30.35
2022-10-17T05:25:27.486Z,28.05
2022-10-17T05:27:54.464Z,28.27
2022-10-17T05:30:21.665Z,28.35
2022-10-17T05:32:48.443Z,20.17
2022-10-17T05:35:15.181Z,24.00
2022-10-17T05:37:41.920Z,28.35
2022-10-17T05:40:12.878Z,25.27
2022-10-17T05:45:11.262Z,24.05
2022-10-17T05:47:38.005Z,25.95
2022-10-17T05:50:09.286Z,22.92
2022-10-17T05:52:36.463Z,27.75
2022-10-17T05:55:04.672Z,25.90
2022-10-17T05:57:31.922Z,25.60
2022-10-17T05:59:58.730Z,28.02
2022-10-17T06:02:25.468Z,26.17
2022-10-17T06:04:52.121Z,23.30
2022-10-17T06:07:18.733Z,28.33
2022-10-17T06:12:13.010Z,27.25
2022-10-17T06:14:39.915Z,27.33
2022-10-17T06:17:08.404Z,29.25
2022-10-17T06:19:36.973Z,25.98
2022-10-17T06:22:03.645Z,29.77
2022-10-17T06:24:30.359Z,25.38
2022-10-17T06:26:57.784Z,28.58
2022-10-17T06:29:24.609Z,30.88
2022-10-17T06:31:51.907Z,32.58
2022-10-17T06:34:18.802Z,28.75
2022-10-17T06:36:45.650Z,31.05
2022-10-17T06:39:12.371Z,29.23
2022-10-17T06:41:41.046Z,28.85
2022-10-17T06:44:11.229Z,30.20
2022-10-17T06:46:39.446Z,28.27
2022-10-17T06:49:07.515Z,29.85
2022-10-17T06:51:37.931Z,26.85
2022-10-17T06:54:04.901Z,31.58
2022-10-17T06:56:31.503Z,29.13
2022-10-17T06:58:58.163Z,28.70
2022-10-17T07:01:24.816Z,30.45
2022-10-17T07:03:52.316Z,28.05
2022-10-17T07:06:19.351Z,28.08
2022-10-17T07:14:13.555Z,44.75
2022-10-17T07:16:40.131Z,29.60
2022-10-17T07:22:13.726Z,30.80
2022-10-17T07:24:40.346Z,31.52
2022-10-17T07:27:06.936Z,33.40
2022-10-17T07:29:33.601Z,34.17
2022-10-17T07:32:00.189Z,32.40
2022-10-17T07:34:27.662Z,32.58
2022-10-17T07:36:54.290Z,32.25
2022-10-17T07:39:20.848Z,33.42
2022-10-17T07:41:49.474Z,29.30
2022-10-17T07:44:16.105Z,30.33
2022-10-17T07:46:42.714Z,30.90
2022-10-17T07:49:09.340Z,32.80
2022-10-17T07:51:35.915Z,31.60
2022-10-17T07:54:02.540Z,32.80
2022-10-17T07:56:29.651Z,30.10
2022-10-17T08:01:28.918Z,31.30
2022-10-17T08:03:55.472Z,32.85
2022-10-17T08:06:22.144Z,33.85
2022-10-17T08:08:48.750Z,30.50
2022-10-17T08:11:15.839Z,33.30
2022-10-17T08:13:42.883Z,32.58
2022-10-17T08:16:12.541Z,34.30
2022-10-17T08:18:40.548Z,33.90
2022-10-17T08:21:08.284Z,32.65
2022-10-17T08:23:35.901Z,33.42
2022-10-17T08:26:04.197Z,34.20
2022-10-17T08:28:30.979Z,30.70
2022-10-17T08:31:11.654Z,33.65
2022-10-17T08:33:38.726Z,30.88
2022-10-17T08:36:06.630Z,32.97
2022-10-17T08:38:35.609Z,31.08
2022-10-17T08:41:15.567Z,30.77
2022-10-17T08:44:03.291Z,30.27
2022-10-17T08:46:35.521Z,30.80
2022-10-17T08:49:11.987Z,29.50
2022-10-17T08:51:49.425Z,30.77
2022-10-17T08:54:15.912Z,30.47
2022-10-17T08:56:49.719Z,30.98
2022-10-17T08:59:31.560Z,28.70
2022-10-17T09:02:19.806Z,30.15
2022-10-17T09:05:04.613Z,30.05
2022-10-17T09:07:59.072Z,29.80
2022-10-17T09:10:52.529Z,28.88
2022-10-17T09:13:34.046Z,30.15
2022-10-17T09:16:25.123Z,31.05
2022-10-17T09:19:04.986Z,29.33
2022-10-17T09:21:42.141Z,28.55
2022-10-17T09:24:18.323Z,28.35
2022-10-17T09:26:46.836Z,27.65
2022-10-17T09:29:24.744Z,28.58
2022-10-17T09:34:28.109Z,27.90
2022-10-17T09:36:55.326Z,29.80
2022-10-17T09:39:31.691Z,29.40
2022-10-17T09:42:00.477Z,28.23
2022-10-17T09:44:35.965Z,27.70
2022-10-17T09:47:24.321Z,29.63
2022-10-17T09:49:51.482Z,29.90
2022-10-17T09:52:56.188Z,30.70
2022-10-17T09:55:40.133Z,31.27
2022-10-17T09:58:08.312Z,30.23
2022-10-17T10:00:43.302Z,29.95
2022-10-17T10:03:22.797Z,31.38
2022-10-17T10:06:02.813Z,30.40
2022-10-17T10:08:32.790Z,30.02
2022-10-17T10:11:05.950Z,30.30
2022-10-17T10:13:34.482Z,33.80
2022-10-17T10:16:31.354Z,29.52
2022-10-17T10:18:58.727Z,30.65
2022-10-17T10:21:27.661Z,31.17
2022-10-17T10:24:12.542Z,31.85
2022-10-17T10:26:46.261Z,28.30
2022-10-17T10:29:30.713Z,29.48
2022-10-17T10:32:07.675Z,29.17
2022-10-17T10:34:37.740Z,31.58
2022-10-17T10:37:18.867Z,30.42
2022-10-17T10:39:50.493Z,29.60
2022-10-17T10:42:20.106Z,28.70
2022-10-17T10:44:48.688Z,30.98
2022-10-17T10:47:28.634Z,30.92
2022-10-17T10:50:26.192Z,31.75
2022-10-17T10:53:05.523Z,29.17
2022-10-17T10:55:45.345Z,29.45
2022-10-17T10:58:32.690Z,31.02
2022-10-17T11:01:06.110Z,30.73
2022-10-17T11:03:46.557Z,26.98
2022-10-17T11:06:26.201Z,26.90
2022-10-17T11:09:00.582Z,29.83
2022-10-17T11:11:40.568Z,29.75
2022-10-17T11:14:15.049Z,28.13
2022-10-17T11:16:55.880Z,26.75
2022-10-17T11:19:33.943Z,29.30
2022-10-17T11:25:11.582Z,26.50
2022-10-17T11:27:38.439Z,27.65
2022-10-17T11:30:06.202Z,30.10
2022-10-17T11:32:54.235Z,29.52
2022-10-17T11:38:34.757Z,28.35
2022-10-17T11:41:03.036Z,28.52
2022-10-17T11:46:12.509Z,27.45
2022-10-17T11:48:52.874Z,27.07
2022-10-17T11:54:33.091Z,25.92
2022-10-17T11:57:27.347Z,25.65
2022-10-17T11:59:59.319Z,25.15
2022-10-17T12:02:49.499Z,26.75
2022-10-17T12:05:36.230Z,27.80
2022-10-17T12:08:34.685Z,29.15
2022-10-17T12:11:19.156Z,25.58
2022-10-17T12:13:45.627Z,26.10
2022-10-17T12:16:21.328Z,29.15
2022-10-17T12:19:06.191Z,28.23
2022-10-17T12:22:03.486Z,27.13
2022-10-17T12:24:43.314Z,28.23
2022-10-17T12:27:38.696Z,27.77
2022-10-17T12:30:14.813Z,26.67
2022-10-17T12:33:06.782Z,26.05
2022-10-17T12:35:36.997Z,25.88
2022-10-17T12:38:16.285Z,25.25
2022-10-17T12:40:48.529Z,26.85
2022-10-17T12:43:15.519Z,28.25
2022-10-17T12:45:54.855Z,27.27
2022-10-17T12:49:01.087Z,25.10
2022-10-17T12:51:37.910Z,23.90
2022-10-17T12:54:16.341Z,25.00
2022-10-17T12:56:45.728Z,23.10
2022-10-17T12:59:15.378Z,27.60
2022-10-17T13:01:46.553Z,25.25
2022-10-17T13:04:13.628Z,25.65
2022-10-17T13:06:58.874Z,24.05
2022-10-17T13:09:31.467Z,23.73
2022-10-17T13:12:01.397Z,22.80
2022-10-17T13:14:29.710Z,26.05
2022-10-17T13:17:04.970Z,26.88
2022-10-17T13:19:44.082Z,23.10
2022-10-17T13:22:27.299Z,24.80
2022-10-17T13:25:09.999Z,25.25
2022-10-17T13:27:37.514Z,25.20
2022-10-17T13:30:23.414Z,25.67
2022-10-17T13:32:51.817Z,27.08
2022-10-17T13:38:28.717Z,25.88
2022-10-17T13:41:01.992Z,26.17
2022-10-17T13:43:38.753Z,26.48
2022-10-17T13:46:25.300Z,23.63
2022-10-17T13:48:52.714Z,25.77
2022-10-17T13:51:19.611Z,24.05
2022-10-17T13:53:46.094Z,23.15
2022-10-17T13:56:29.639Z,22.90
2022-10-17T13:59:00.213Z,24.58
2022-10-17T14:01:28.966Z,21.75
2022-10-17T14:04:07.865Z,23.13
2022-10-17T14:06:45.168Z,25.70
2022-10-17T14:09:32.985Z,23.98
2022-10-17T14:12:02.106Z,25.95
2022-10-17T14:14:30.375Z,25.10
2022-10-17T14:17:01.191Z,25.38
2022-10-17T14:19:31.096Z,21.67
2022-10-17T14:22:22.987Z,24.20
2022-10-17T14:24:51.987Z,26.20
2022-10-17T14:27:55.831Z,23.08
2022-10-17T14:30:51.739Z,23.80
2022-10-17T14:33:31.961Z,25.52
2022-10-17T14:36:01.505Z,21.90
2022-10-17T14:38:29.384Z,26.42
2022-10-17T14:41:37.704Z,23.13
2022-10-17T14:44:08.247Z,24.35
2022-10-17T14:46:36.775Z,23.15
2022-10-17T14:49:06.911Z,23.27
2022-10-17T14:51:44.709Z,25.02
2022-10-17T14:54:26.504Z,21.27
2022-10-17T14:56:54.847Z,25.90
2022-10-17T15:02:11.604Z,21.33
2022-10-17T15:04:38.108Z,23.85
2022-10-17T15:07:04.880Z,22.50
2022-10-17T15:09:31.487Z,19.83
2022-10-17T15:12:07.082Z,25.77
2022-10-17T15:14:33.613Z,26.70
2022-10-17T15:17:00.676Z,26.00
2022-10-17T15:19:27.170Z,21.20
2022-10-17T15:21:53.668Z,21.73
2022-10-17T15:24:20.293Z,24.27
2022-10-17T15:26:46.933Z,24.85
2022-10-17T15:29:16.062Z,20.88
2022-10-17T15:31:42.669Z,24.23
2022-10-17T15:34:10.241Z,19.65
2022-10-17T15:36:41.541Z,22.80
2022-10-17T15:39:09.879Z,21.63
2022-10-17T15:44:02.912Z,18.70
2022-10-17T15:46:33.008Z,20.00
2022-10-17T15:49:07.580Z,24.42
2022-10-17T15:51:34.337Z,18.00
2022-10-17T15:54:01.661Z,23.23
2022-10-17T15:56:31.777Z,25.37
2022-10-17T15:58:58.653Z,20.15
2022-10-17T16:01:28.093Z,21.92
2022-10-17T16:03:55.020Z,20.50
2022-10-17T16:06:22.334Z,17.05
2022-10-17T16:08:49.643Z,17.35
2022-10-17T16:11:31.413Z,23.55
2022-10-17T16:14:00.894Z,22.88
2022-10-17T16:16:28.995Z,19.00
2022-10-17T16:18:55.835Z,16.33
2022-10-17T16:21:25.895Z,16.77
2022-10-17T16:23:53.106Z,20.65
2022-10-17T16:26:20.055Z,16.42
2022-10-17T16:28:46.741Z,18.60
2022-10-17T16:31:23.502Z,16.50
2022-10-17T16:33:51.898Z,17.52
2022-10-17T16:36:18.681Z,22.77
2022-10-17T16:38:45.636Z,19.15
2022-10-17T16:41:29.579Z,16.27
2022-10-17T16:43:58.719Z,16.77
2022-10-17T16:46:26.829Z,21.20
2022-10-17T16:48:53.868Z,21.27
2022-10-17T16:51:20.868Z,20.85
2022-10-17T16:53:50.189Z,20.65
2022-10-17T16:56:19.574Z,21.15
2022-10-17T16:58:46.776Z,19.98
2022-10-17T17:01:20.132Z,18.65
2022-10-17T17:03:47.842Z,18.27
2022-10-17T17:06:19.123Z,19.00
2022-10-17T17:08:46.135Z,20.58
2022-10-17T17:11:15.565Z,17.38
2022-10-17T17:13:42.799Z,19.10
2022-10-17T17:16:18.302Z,20.83
2022-10-17T17:18:46.090Z,20.70
2022-10-17T17:21:13.914Z,21.67
2022-10-17T17:23:42.269Z,21.33
2022-10-17T17:26:15.094Z,19.33
2022-10-17T17:28:42.346Z,19.80
2022-10-17T17:31:11.538Z,16.35
2022-10-17T17:33:39.473Z,21.45
2022-10-17T17:36:07.732Z,24.33
2022-10-17T17:38:36.261Z,23.30
2022-10-17T17:41:04.088Z,20.98
2022-10-17T17:43:30.669Z,23.00
2022-10-17T17:45:57.284Z,22.38
2022-10-17T17:48:24.144Z,24.00
2022-10-17T17:50:50.765Z,20.35
2022-10-17T17:53:18.957Z,22.30
2022-10-17T17:55:45.683Z,24.63
2022-10-17T17:58:12.657Z,18.60
2022-10-17T18:00:40.631Z,21.95
2022-10-17T18:03:08.105Z,23.33
2022-10-17T18:05:34.704Z,27.15
2022-10-17T18:08:01.269Z,24.73
2022-10-17T18:10:29.458Z,25.45
2022-10-17T18:12:55.992Z,24.42
2022-10-17T18:15:22.805Z,26.42
2022-10-17T18:17:49.363Z,22.85
2022-10-17T18:20:16.080Z,26.95
2022-10-17T18:22:42.788Z,21.15
2022-10-17T18:25:09.558Z,27.38
2022-10-17T18:27:36.494Z,20.95
2022-10-17T18:30:03.414Z,19.17
2022-10-17T18:32:31.912Z,25.35
2022-10-17T18:34:58.880Z,25.50
2022-10-17T18:37:25.440Z,26.13
2022-10-17T18:39:55.316Z,27.27
2022-10-17T18:42:23.279Z,26.52
2022-10-17T18:44:50.072Z,28.05
2022-10-17T18:47:16.791Z,25.90
2022-10-17T18:49:43.592Z,23.20
2022-10-17T18:52:10.322Z,25.80
2022-10-17T18:54:36.876Z,24.80
2022-10-17T18:57:03.501Z,21.45
2022-10-17T18:59:30.091Z,25.67
2022-10-17T19:01:56.889Z,23.55
2022-10-17T19:04:23.871Z,26.35
2022-10-17T19:06:50.383Z,26.20
2022-10-17T19:09:17.334Z,25.20
2022-10-17T19:11:44.155Z,27.02
2022-10-17T19:14:15.456Z,23.58
2022-10-17T19:16:46.140Z,19.95
2022-10-17T19:19:16.788Z,24.27
2022-10-17T19:21:43.986Z,24.75
2022-10-17T19:24:25.039Z,19.95
2022-10-17T19:26:54.279Z,22.35
2022-10-17T19:29:22.760Z,22.52
2022-10-17T19:31:49.595Z,23.50
2022-10-17T19:34:17.447Z,25.40
2022-10-17T19:36:44.730Z,25.53
2022-10-17T19:39:29.768Z,24.60
2022-10-17T19:41:56.309Z,23.45
2022-10-17T19:44:22.879Z,26.50
2022-10-17T19:46:49.565Z,25.00
2022-10-17T19:49:16.508Z,24.40
2022-10-17T19:51:43.366Z,27.45
2022-10-17T19:54:09.973Z,26.17
2022-10-17T19:56:38.301Z,25.17
2022-10-17T19:59:06.449Z,25.70
2022-10-17T20:01:35.796Z,24.83
2022-10-17T20:04:02.531Z,22.08
2022-10-17T20:06:29.352Z,23.52
2022-10-17T20:08:56.411Z,22.67
2022-10-17T20:11:25.321Z,23.05
2022-10-17T20:13:52.749Z,20.77
2022-10-17T20:16:24.819Z,20.80
2022-10-17T20:18:54.576Z,14.98
2022-10-17T20:21:32.394Z,15.95
2022-10-17T20:23:59.885Z,15.23
2022-10-17T20:26:43.870Z,13.35
2022-10-17T20:29:21.378Z,14.80
2022-10-17T20:31:48.759Z,10.50
2022-10-17T20:34:17.237Z,10.95
2022-10-17T20:36:44.136Z,10.73
2022-10-17T20:39:12.871Z,11.88
2022-10-17T20:44:07.064Z,10.88
2022-10-17T20:46:39.765Z,14.75
2022-10-17T20:49:18.236Z,16.13
2022-10-17T20:51:45.677Z,14.48
2022-10-17T20:54:12.689Z,14.50
2022-10-17T20:56:40.930Z,14.07
2022-10-17T20:59:12.675Z,16.55
2022-10-17T21:01:39.874Z,16.13
2022-10-17T21:04:33.215Z,15.95
2022-10-17T21:06:53.673Z,16.15
2022-10-17T21:09:20.854Z,17.08
2022-10-17T21:11:48.352Z,17.73
2022-10-17T21:14:16.681Z,20.83
2022-10-17T21:16:43.597Z,19.25
2022-10-17T21:19:11.624Z,21.45
2022-10-17T21:21:41.102Z,21.42
2022-10-17T21:24:13.617Z,22.95
2022-10-17T21:26:41.486Z,23.45
2022-10-17T21:29:08.018Z,19.00
2022-10-17T21:31:36.671Z,20.67
2022-10-17T21:34:08.905Z,22.38
2022-10-17T21:36:35.782Z,23.60
2022-10-17T21:39:03.403Z,18.67
2022-10-17T21:41:30.829Z,19.92
2022-10-17T21:44:01.979Z,20.00
2022-10-17T21:46:28.875Z,19.25
2022-10-17T21:48:55.587Z,18.83
2022-10-17T21:51:24.673Z,18.35
2022-10-17T21:53:52.915Z,17.70
2022-10-17T21:56:22.283Z,16.58
2022-10-17T21:58:50.074Z,19.85
2022-10-17T22:01:22.117Z,18.25
2022-10-17T22:03:53.704Z,16.50
2022-10-17T22:06:39.206Z,17.63
2022-10-17T22:09:11.494Z,16.35
2022-10-17T22:11:38.027Z,12.48
2022-10-17T22:14:12.159Z,13.32
2022-10-17T22:16:39.316Z,14.18
2022-10-17T22:19:07.378Z,13.00
2022-10-17T22:21:36.077Z,13.52
2022-10-17T22:24:07.032Z,12.05
2022-10-17T22:26:35.627Z,11.35
2022-10-17T22:29:03.042Z,12.10
2022-10-17T22:31:29.599Z,12.55
2022-10-17T22:33:56.388Z,11.73
2022-10-17T22:36:23.131Z,11.98
2022-10-17T22:38:49.654Z,11.55
2022-10-17T22:41:16.275Z,12.25
2022-10-17T22:43:42.981Z,12.18
2022-10-17T22:46:13.012Z,13.93
2022-10-17T22:48:40.161Z,16.02
2022-10-17T22:51:06.824Z,15.45
2022-10-17T22:53:35.222Z,18.52
2022-10-17T22:56:05.147Z,16.58
2022-10-17T22:58:34.308Z,17.00
2022-10-17T23:01:01.554Z,17.88
2022-10-17T23:03:29.337Z,18.70
2022-10-17T23:05:56.748Z,19.92
2022-10-17T23:08:23.959Z,20.40
2022-10-17T23:10:50.555Z,19.08
2022-10-17T23:13:17.379Z,18.17
2022-10-17T23:15:44.066Z,18.45
2022-10-17T23:18:10.850Z,17.40
2022-10-17T23:20:37.721Z,18.88
2022-10-17T23:23:04.995Z,17.13
2022-10-17T23:25:33.975Z,14.70
2022-10-17T23:28:00.815Z,16.35
2022-10-17T23:30:27.388Z,20.40
2022-10-17T23:32:53.954Z,16.42
2022-10-17T23:35:20.498Z,15.10
2022-10-17T23:37:47.035Z,14.30
2022-10-17T23:40:13.915Z,18.05
2022-10-17T23:42:40.427Z,16.65
2022-10-17T23:45:07.916Z,16.85
2022-10-17T23:47:34.506Z,19.25
2022-10-17T23:50:01.069Z,18.48
2022-10-17T23:52:27.590Z,16.58
2022-10-17T23:54:54.107Z,16.33
2022-10-17T23:57:20.755Z,16.67
2022-10-17T23:59:47.315Z,15.02
